| time (UTC) | temp C | wind direction | speed KPH | gust KPH | rain 1hr cm | rain 24hr cm | rain mn cm | humidity % | barometer mb |
| 20260504234944 | 16 | 35 | 25.7 | 32.2 | 0.00 | 0.00 | 0.00 | 36 | 1005.6 |
| 20260504234442 | 16 | 27 | 17.7 | 37.0 | 0.00 | 0.00 | 0.00 | 36 | 1005.4 |
| 20260504233938 | 17 | 38 | 29.0 | 32.2 | 0.00 | 0.00 | 0.00 | 35 | 1005.6 |
| 20260504233434 | 17 | 20 | 20.9 | 25.7 | 0.00 | 0.00 | 0.00 | 35 | 1005.4 |
| 20260504232931 | 17 | 24 | 14.5 | 19.3 | 0.00 | 0.00 | 0.00 | 35 | 1005.3 |
| 20260504232428 | 17 | 33 | 20.9 | 24.1 | 0.00 | 0.00 | 0.00 | 35 | 1005.4 |
| 20260504231925 | 17 | 39 | 19.3 | 27.4 | 0.00 | 0.00 | 0.00 | 34 | 1005.3 |
| 20260504231421 | 17 | 21 | 17.7 | 24.1 | 0.00 | 0.00 | 0.00 | 34 | 1005.3 |
| 20260504230918 | 17 | 17 | 17.7 | 25.7 | 0.00 | 0.00 | 0.00 | 34 | 1005.1 |
| 20260504230415 | 17 | 22 | 22.5 | 32.2 | 0.00 | 0.00 | 0.00 | 34 | 1005.0 |
| 20260504225914 | 17 | 40 | 19.3 | 33.8 | 0.00 | 0.00 | 0.00 | 34 | 1004.9 |
| 20260504225410 | 17 | 33 | 25.7 | 32.2 | 0.00 | 0.00 | 0.00 | 34 | 1004.9 |
| 20260504224908 | 17 | 32 | 20.9 | 29.0 | 0.00 | 0.00 | 0.00 | 33 | 1004.8 |
| 20260504224404 | 17 | 22 | 20.9 | 33.8 | 0.00 | 0.00 | 0.00 | 33 | 1004.8 |
| 20260504223901 | 17 | 51 | 19.3 | 27.4 | 0.00 | 0.00 | 0.00 | 33 | 1004.1 |
| 20260504223356 | 17 | 31 | 19.3 | 29.0 | 0.00 | 0.00 | 0.00 | 33 | 1004.4 |
| 20260504222853 | 17 | 54 | 25.7 | 32.2 | 0.00 | 0.00 | 0.00 | 33 | 1004.5 |
| 20260504222350 | 18 | 43 | 20.9 | 35.4 | 0.00 | 0.00 | 0.00 | 33 | 1004.4 |
| 20260504221848 | 18 | 28 | 29.0 | 37.0 | 0.00 | 0.00 | 0.00 | 32 | 1004.7 |
| 20260504221344 | 18 | 41 | 27.4 | 37.0 | 0.00 | 0.00 | 0.00 | 32 | 1004.4 |
| 20260504220842 | 18 | 37 | 27.4 | 32.2 | 0.00 | 0.00 | 0.00 | 32 | 1004.4 |
| 20260504220338 | 18 | 15 | 19.3 | 27.4 | 0.00 | 0.00 | 0.00 | 32 | 1004.5 |
| 20260504215836 | 18 | 17 | 20.9 | 25.7 | 0.00 | 0.00 | 0.00 | 32 | 1004.7 |
| 20260504215332 | 18 | 27 | 14.5 | 27.4 | 0.00 | 0.00 | 0.00 | 32 | 1004.3 |
| 20260504214828 | 18 | 20 | 19.3 | 32.2 | 0.00 | 0.00 | 0.00 | 32 | 1004.7 |
| 20260504214325 | 18 | 27 | 17.7 | 25.7 | 0.00 | 0.00 | 0.00 | 31 | 1004.4 |
| 20260504213822 | 18 | 30 | 20.9 | 33.8 | 0.00 | 0.00 | 0.00 | 31 | 1004.7 |
| 20260504213318 | 18 | 32 | 22.5 | 32.2 | 0.00 | 0.00 | 0.00 | 31 | 1004.4 |
| 20260504212815 | 19 | 16 | 17.7 | 27.4 | 0.00 | 0.00 | 0.00 | 30 | 1004.4 |
| 20260504212311 | 18 | 44 | 20.9 | 33.8 | 0.00 | 0.00 | 0.00 | 31 | 1004.3 |
| 20260504211809 | 19 | 18 | 17.7 | 30.6 | 0.00 | 0.00 | 0.00 | 30 | 1004.3 |
| 20260504211305 | 18 | 34 | 16.1 | 33.8 | 0.00 | 0.00 | 0.00 | 31 | 1004.3 |
| 20260504210803 | 18 | 27 | 25.7 | 30.6 | 0.00 | 0.00 | 0.00 | 30 | 1004.2 |
| 20260504210300 | 20 | 45 | 20.9 | 33.8 | 0.00 | 0.00 | 0.00 | 30 | 1004.1 |
| 20260504205757 | 19 | 45 | 27.4 | 41.8 | 0.00 | 0.00 | 0.00 | 30 | 1003.8 |
| 20260504205254 | 20 | 0 | 20.9 | 35.4 | 0.00 | 0.00 | 0.00 | 29 | 1004.0 |
| 20260504204752 | 20 | 35 | 22.5 | 38.6 | 0.00 | 0.00 | 0.00 | 28 | 1004.0 |
| 20260504204250 | 20 | 34 | 17.7 | 35.4 | 0.00 | 0.00 | 0.00 | 28 | 1004.0 |
| 20260504203749 | 20 | 19 | 20.9 | 35.4 | 0.00 | 0.00 | 0.00 | 28 | 1004.0 |
| 20260504203246 | 20 | 14 | 30.6 | 37.0 | 0.00 | 0.00 | 0.00 | 28 | 1004.1 |
| 20260504202741 | 21 | 23 | 20.9 | 32.2 | 0.00 | 0.00 | 0.00 | 27 | 1004.0 |
| 20260504202239 | 20 | 8 | 29.0 | 35.4 | 0.00 | 0.00 | 0.00 | 28 | 1004.1 |
| 20260504201735 | 20 | 47 | 22.5 | 32.2 | 0.00 | 0.00 | 0.00 | 29 | 1004.0 |
| 20260504201232 | 21 | 17 | 22.5 | 32.2 | 0.00 | 0.00 | 0.00 | 27 | 1003.9 |
| 20260504200731 | 21 | 33 | 27.4 | 30.6 | 0.00 | 0.00 | 0.00 | 28 | 1004.0 |
| 20260504200226 | 21 | 36 | 30.6 | 38.6 | 0.00 | 0.00 | 0.00 | 27 | 1004.0 |
| 20260504195723 | 21 | 25 | 27.4 | 37.0 | 0.00 | 0.00 | 0.00 | 28 | 1004.0 |
| 20260504195219 | 21 | 11 | 20.9 | 35.4 | 0.00 | 0.00 | 0.00 | 28 | 1004.1 |
| 20260504194716 | 20 | 31 | 32.2 | 41.8 | 0.00 | 0.00 | 0.00 | 28 | 1004.0 |
| 20260504194212 | 21 | 21 | 29.0 | 41.8 | 0.00 | 0.00 | 0.00 | 28 | 1004.2 |
| 20260504193708 | 21 | 31 | 32.2 | 40.2 | 0.00 | 0.00 | 0.00 | 28 | 1004.0 |
| 20260504193206 | 21 | 5 | 30.6 | 35.4 | 0.00 | 0.00 | 0.00 | 27 | 1004.0 |
| 20260504192704 | 22 | 28 | 30.6 | 33.8 | 0.00 | 0.00 | 0.00 | 27 | 1004.0 |
| 20260504192202 | 21 | 3 | 19.3 | 32.2 | 0.00 | 0.00 | 0.00 | 28 | 1004.2 |
| 20260504191701 | 21 | 358 | 27.4 | 30.6 | 0.00 | 0.00 | 0.00 | 28 | 1004.3 |
| 20260504191156 | 20 | 11 | 16.1 | 27.4 | 0.00 | 0.00 | 0.00 | 29 | 1004.4 |
| 20260504190652 | 21 | 16 | 24.1 | 32.2 | 0.00 | 0.00 | 0.00 | 28 | 1004.0 |
| 20260504190149 | 20 | 23 | 24.1 | 30.6 | 0.00 | 0.00 | 0.00 | 29 | 1004.3 |
| 20260504185645 | 20 | 22 | 25.7 | 35.4 | 0.00 | 0.00 | 0.00 | 30 | 1003.9 |
| 20260504185142 | 20 | 0 | 29.0 | 38.6 | 0.00 | 0.00 | 0.00 | 30 | 1004.1 |
| 20260504184638 | 21 | 23 | 24.1 | 35.4 | 0.00 | 0.00 | 0.00 | 30 | 1003.8 |
| 20260504184133 | 21 | 6 | 32.2 | 37.0 | 0.00 | 0.00 | 0.00 | 29 | 1003.9 |
| 20260504183630 | 21 | 18 | 27.4 | 38.6 | 0.00 | 0.00 | 0.00 | 30 | 1003.8 |
| 20260504183128 | 20 | 14 | 29.0 | 33.8 | 0.00 | 0.00 | 0.00 | 32 | 1003.6 |
| 20260504182625 | 21 | 7 | 25.7 | 37.0 | 0.00 | 0.00 | 0.00 | 30 | 1003.8 |
| 20260504182123 | 21 | 28 | 27.4 | 35.4 | 0.00 | 0.00 | 0.00 | 31 | 1003.5 |
| 20260504181620 | 21 | 355 | 25.7 | 37.0 | 0.00 | 0.00 | 0.00 | 31 | 1003.4 |
| 20260504181117 | 22 | 27 | 16.1 | 30.6 | 0.00 | 0.00 | 0.00 | 28 | 1003.4 |
| 20260504180617 | 22 | 15 | 30.6 | 40.2 | 0.00 | 0.00 | 0.00 | 28 | 1003.6 |
| 20260504180115 | 22 | 19 | 16.1 | 24.1 | 0.00 | 0.00 | 0.00 | 27 | 1003.8 |
| 20260504175612 | 22 | 8 | 20.9 | 29.0 | 0.00 | 0.00 | 0.00 | 27 | 1003.6 |
| 20260504175108 | 22 | 33 | 30.6 | 33.8 | 0.00 | 0.00 | 0.00 | 29 | 1003.3 |
| 20260504174607 | 22 | 6 | 19.3 | 25.7 | 0.00 | 0.00 | 0.00 | 26 | 1003.5 |
| 20260504174103 | 21 | 18 | 24.1 | 33.8 | 0.00 | 0.00 | 0.00 | 28 | 1003.3 |
| 20260504173600 | 21 | 13 | 25.7 | 45.1 | 0.00 | 0.00 | 0.00 | 30 | 1003.8 |
| 20260504173058 | 21 | 11 | 17.7 | 30.6 | 0.00 | 0.00 | 0.00 | 28 | 1003.6 |
| 20260504172553 | 21 | 16 | 24.1 | 27.4 | 0.00 | 0.00 | 0.00 | 27 | 1003.5 |
| 20260504172050 | 22 | 24 | 14.5 | 16.1 | 0.00 | 0.00 | 0.00 | 21 | 1003.4 |
| 20260504171547 | 23 | 122 | 8.0 | 14.5 | 0.00 | 0.00 | 0.00 | 20 | 1003.3 |
| 20260504171044 | 23 | 114 | 4.8 | 11.3 | 0.00 | 0.00 | 0.00 | 20 | 1003.4 |
| 20260504170539 | 23 | 100 | 0.0 | 4.8 | 0.00 | 0.00 | 0.00 | 21 | 1003.2 |
| 20260504150924 | 18 | 340 | 1.6 | 4.8 | 0.00 | 0.00 | 0.00 | 31 | 1003.8 |
| 20260504150420 | 18 | 249 | 1.6 | 4.8 | 0.00 | 0.00 | 0.00 | 31 | 1004.0 |
| 20260504140847 | 14 | 288 | 11.3 | 14.5 | 0.00 | 0.00 | 0.00 | 38 | 1005.4 |
| 20260504140343 | 13 | 330 | 4.8 | 9.7 | 0.00 | 0.00 | 0.00 | 40 | 1005.2 |
| 20260504130812 | 7 | 327 | 4.8 | 6.4 | 0.00 | 0.00 | 0.00 | 57 | 1006.8 |
| 20260504130308 | 7 | 357 | 1.6 | 4.8 | 0.00 | 0.00 | 0.00 | 60 | 1006.9 |
| 20260504120231 | 1 | 27 | 0.0 | 3.2 | 0.00 | 0.00 | 0.00 | 77 | 1007.8 |
| 20260504110659 | 1 | 298 | 6.4 | 8.0 | 0.00 | 0.00 | 0.00 | 80 | 1007.4 |
| 20260504110155 | 1 | 282 | 6.4 | 8.0 | 0.00 | 0.00 | 0.00 | 79 | 1007.6 |
| 20260504100615 | 2 | 294 | 12.9 | 17.7 | 0.00 | 0.00 | 0.00 | 77 | 1007.4 |
| 20260504100113 | 2 | 290 | 8.0 | 14.5 | 0.00 | 0.00 | 0.00 | 76 | 1007.4 |
| 20260504081506 | 3 | 312 | 3.2 | 4.8 | 0.00 | 0.00 | 0.00 | 76 | 1007.8 |
| 20260504081001 | 2 | 286 | 4.8 | 4.8 | 0.00 | 0.00 | 0.00 | 76 | 1007.8 |
| 20260504080458 | 2 | 293 | 4.8 | 6.4 | 0.00 | 0.00 | 0.00 | 76 | 1007.9 |
| 20260504050311 | 7 | 357 | 1.6 | 4.8 | 0.00 | 0.00 | 0.00 | 64 | 1008.4 |
| 20260504045808 | 6 | 266 | 3.2 | 4.8 | 0.00 | 0.00 | 0.00 | 65 | 1008.3 |
| 20260504045304 | 6 | 299 | 3.2 | 4.8 | 0.00 | 0.00 | 0.00 | 64 | 1008.1 |
| 20260504044800 | 7 | 335 | 3.2 | 4.8 | 0.00 | 0.00 | 0.00 | 62 | 1008.6 |
| 20260504044258 | 8 | 53 | 3.2 | 3.2 | 0.00 | 0.00 | 0.00 | 62 | 1008.5 |
| 20260504043755 | 8 | 110 | 4.8 | 4.8 | 0.00 | 0.00 | 0.00 | 62 | 1008.4 |
| 20260504043251 | 8 | 105 | 3.2 | 3.2 | 0.00 | 0.00 | 0.00 | 63 | 1008.5 |
| 20260504042749 | 9 | 92 | 3.2 | 3.2 | 0.00 | 0.00 | 0.00 | 61 | 1008.4 |
| 20260504042245 | 10 | 126 | 4.8 | 6.4 | 0.00 | 0.00 | 0.00 | 59 | 1008.4 |
| 20260504041742 | 10 | 105 | 4.8 | 6.4 | 0.00 | 0.00 | 0.00 | 59 | 1008.5 |
| 20260504041238 | 10 | 116 | 6.4 | 8.0 | 0.00 | 0.00 | 0.00 | 57 | 1008.3 |
| 20260504040734 | 10 | 132 | 6.4 | 8.0 | 0.00 | 0.00 | 0.00 | 59 | 1008.3 |
| 20260504040232 | 11 | 134 | 8.0 | 9.7 | 0.00 | 0.00 | 0.00 | 54 | 1008.4 |
| 20260504035727 | 11 | 128 | 6.4 | 8.0 | 0.00 | 0.00 | 0.00 | 54 | 1008.2 |
| 20260504035225 | 11 | 73 | 3.2 | 4.8 | 0.00 | 0.00 | 0.00 | 56 | 1008.3 |
| 20260504034723 | 11 | 156 | 3.2 | 6.4 | 0.00 | 0.00 | 0.00 | 58 | 1008.2 |
| 20260504034219 | 11 | 127 | 8.0 | 11.3 | 0.00 | 0.00 | 0.00 | 58 | 1008.2 |
| 20260504033717 | 12 | 141 | 6.4 | 8.0 | 0.00 | 0.00 | 0.00 | 53 | 1008.3 |
| 20260504033214 | 13 | 105 | 8.0 | 12.9 | 0.00 | 0.00 | 0.00 | 47 | 1008.1 |
| 20260504032711 | 13 | 72 | 8.0 | 11.3 | 0.00 | 0.00 | 0.00 | 46 | 1008.1 |
| 20260504032209 | 12 | 118 | 6.4 | 9.7 | 0.00 | 0.00 | 0.00 | 51 | 1008.1 |
| 20260504031705 | 11 | 132 | 4.8 | 6.4 | 0.00 | 0.00 | 0.00 | 52 | 1007.9 |
| 20260504031202 | 12 | 147 | 8.0 | 8.0 | 0.00 | 0.00 | 0.00 | 52 | 1007.9 |
| 20260504030658 | 13 | 91 | 3.2 | 6.4 | 0.00 | 0.00 | 0.00 | 45 | 1007.9 |
| 20260504030155 | 13 | 41 | 9.7 | 11.3 | 0.00 | 0.00 | 0.00 | 45 | 1007.5 |
| 20260504025652 | 13 | 37 | 9.7 | 12.9 | 0.00 | 0.00 | 0.00 | 45 | 1007.7 |
| 20260504025149 | 14 | 20 | 8.0 | 12.9 | 0.00 | 0.00 | 0.00 | 44 | 1007.7 |
| 20260504024646 | 14 | 26 | 16.1 | 20.9 | 0.00 | 0.00 | 0.00 | 43 | 1007.6 |
| 20260504024142 | 15 | 21 | 12.9 | 20.9 | 0.00 | 0.00 | 0.00 | 42 | 1007.5 |
| 20260504023639 | 15 | 23 | 16.1 | 24.1 | 0.00 | 0.00 | 0.00 | 41 | 1007.4 |
| 20260504023135 | 15 | 16 | 22.5 | 30.6 | 0.00 | 0.00 | 0.00 | 40 | 1007.6 |
| 20260504022632 | 16 | 24 | 25.7 | 30.6 | 0.00 | 0.00 | 0.00 | 39 | 1007.1 |
| 20260504022127 | 16 | 18 | 17.7 | 27.4 | 0.00 | 0.00 | 0.00 | 39 | 1006.9 |
| 20260504021626 | 16 | 13 | 20.9 | 33.8 | 0.00 | 0.00 | 0.00 | 39 | 1006.9 |
| 20260504021122 | 16 | 15 | 32.2 | 38.6 | 0.00 | 0.00 | 0.00 | 38 | 1006.8 |
| 20260504020619 | 16 | 7 | 35.4 | 38.6 | 0.00 | 0.00 | 0.00 | 37 | 1007.0 |
| 20260504020115 | 17 | 10 | 14.5 | 16.1 | 0.00 | 0.00 | 0.00 | 30 | 1006.8 |
| 20260504015612 | 16 | 26 | 9.7 | 11.3 | 0.00 | 0.00 | 0.00 | 32 | 1006.8 |
| 20260504015108 | 16 | 20 | 4.8 | 8.0 | 0.00 | 0.00 | 0.00 | 33 | 1006.5 |
| 20260504014604 | 16 | 11 | 3.2 | 6.4 | 0.00 | 0.00 | 0.00 | 33 | 1006.2 |
| 20260504014101 | 17 | 39 | 3.2 | 3.2 | 0.00 | 0.00 | 0.00 | 33 | 1006.5 |
| 20260504013559 | 18 | 77 | 3.2 | 4.8 | 0.00 | 0.00 | 0.00 | 32 | 1006.1 |
| 20260504013055 | 18 | 86 | 4.8 | 6.4 | 0.00 | 0.00 | 0.00 | 32 | 1005.9 |
| 20260504012553 | 18 | 89 | 4.8 | 6.4 | 0.00 | 0.00 | 0.00 | 32 | 1006.0 |
| 20260504012051 | 18 | 95 | 6.4 | 8.0 | 0.00 | 0.00 | 0.00 | 31 | 1006.1 |
| 20260504011547 | 20 | 95 | 6.4 | 8.0 | 0.00 | 0.00 | 0.00 | 29 | 1005.9 |
| 20260504011043 | 20 | 99 | 6.4 | 9.7 | 0.00 | 0.00 | 0.00 | 27 | 1005.9 |
| 20260504010539 | 20 | 107 | 4.8 | 4.8 | 0.00 | 0.00 | 0.00 | 29 | 1005.9 |
| 20260504010036 | 20 | 122 | 4.8 | 9.7 | 0.00 | 0.00 | 0.00 | 27 | 1005.8 |
| 20260504005532 | 20 | 118 | 8.0 | 9.7 | 0.00 | 0.00 | 0.00 | 28 | 1005.7 |
| 20260504005030 | 20 | 138 | 6.4 | 9.7 | 0.00 | 0.00 | 0.00 | 27 | 1005.6 |
| 20260504004528 | 20 | 123 | 11.3 | 12.9 | 0.00 | 0.00 | 0.00 | 27 | 1005.7 |
| 20260504004024 | 20 | 114 | 8.0 | 11.3 | 0.00 | 0.00 | 0.00 | 26 | 1005.7 |
| 20260504003520 | 20 | 116 | 6.4 | 11.3 | 0.00 | 0.00 | 0.00 | 27 | 1005.7 |
| 20260504003017 | 21 | 110 | 4.8 | 6.4 | 0.00 | 0.00 | 0.00 | 25 | 1005.3 |
| 20260504002514 | 22 | 123 | 6.4 | 11.3 | 0.00 | 0.00 | 0.00 | 23 | 1005.7 |
| 20260504002012 | 22 | 130 | 6.4 | 12.9 | 0.00 | 0.00 | 0.00 | 23 | 1005.4 |
| 20260504001509 | 23 | 142 | 11.3 | 12.9 | 0.00 | 0.00 | 0.00 | 22 | 1005.6 |
| 20260504001005 | 22 | 186 | 8.0 | 14.5 | 0.00 | 0.00 | 0.00 | 21 | 1005.8 |
| 20260504000503 | 22 | 124 | 4.8 | 6.4 | 0.00 | 0.00 | 0.00 | 23 | 1005.9 |
| 20260504000000 | 22 | 154 | 4.8 | 8.0 | 0.00 | 0.00 | 0.00 | 22 | 1006.0 |
| 20260503235458 | 22 | 119 | 11.3 | 19.3 | 0.00 | 0.00 | 0.00 | 22 | 1006.0 |